Terminal Aerodrome Forecast
Issued by NWS

Home | Current Version | Previous Version | Text Only | Print | Product List | Glossary On
Versions: 1 2 3 4 5 6 7 8 9 10 11 12 13 14 15 16 17
000
FTUS46 KSGX 191700
TAFSNA
TAF
KSNA 191732Z 1918/2018 22004KT P6SM FEW025
      TEMPO 1918/1919 BKN025
     FM192000 22008KT P6SM FEW020
     FM200200 VRB04KT P6SM FEW015
     FM201200 VRB04KT P6SM BKN010
     FM201600 VRB04KT P6SM FEW012=

USA.gov is the U.S. government's official web portal to all federal, state and local government web resources and services.